createdAt,value
2018-04-19T00:00:21.898Z,43.10
2018-04-19T00:02:49.447Z,43.00
2018-04-19T00:05:16.958Z,43.60
2018-04-19T00:07:44.482Z,43.38
2018-04-19T00:10:12.152Z,43.77
2018-04-19T00:12:39.667Z,43.83
2018-04-19T00:15:07.210Z,44.23
2018-04-19T00:17:35.100Z,44.63
2018-04-19T00:20:02.604Z,44.66
2018-04-19T00:22:30.133Z,44.74
2018-04-19T00:24:57.876Z,45.44
2018-04-19T00:27:25.542Z,45.61
2018-04-19T00:29:53.055Z,45.95
2018-04-19T00:32:20.766Z,45.72
2018-04-19T00:34:48.276Z,45.86
2018-04-19T00:37:15.788Z,45.83
2018-04-19T00:39:43.344Z,46.19
2018-04-19T00:42:10.850Z,46.09
2018-04-19T00:44:38.380Z,46.19
2018-04-19T00:47:05.968Z,46.90
2018-04-19T00:49:33.479Z,46.67
2018-04-19T00:52:01.001Z,46.99
2018-04-19T00:54:28.847Z,47.35
2018-04-19T00:56:56.368Z,47.18
2018-04-19T00:59:23.883Z,47.03
2018-04-19T01:01:51.575Z,47.08
2018-04-19T01:04:19.090Z,47.70
2018-04-19T01:06:46.599Z,47.70
2018-04-19T01:09:14.359Z,48.22
2018-04-19T01:11:41.878Z,48.04
2018-04-19T01:14:09.403Z,48.69
2018-04-19T01:16:37.247Z,48.48
2018-04-19T01:19:04.767Z,48.68
2018-04-19T01:21:32.288Z,48.60
2018-04-19T01:24:00.022Z,48.84
2018-04-19T01:26:27.543Z,48.84
2018-04-19T01:28:55.061Z,48.71
2018-04-19T01:31:23.011Z,49.22
2018-04-19T01:33:50.535Z,49.50
2018-04-19T01:36:27.135Z,49.67
2018-04-19T01:38:54.654Z,50.03
2018-04-19T01:41:22.177Z,50.09
2018-04-19T01:43:50.123Z,50.65
2018-04-19T01:46:17.635Z,50.85
2018-04-19T01:48:45.151Z,50.71
2018-04-19T01:51:12.706Z,50.80
2018-04-19T01:53:40.228Z,51.00
2018-04-19T01:56:07.768Z,50.87
2018-04-19T01:58:35.324Z,50.77
2018-04-19T02:01:02.839Z,50.76
2018-04-19T02:03:30.368Z,50.77
2018-04-19T02:05:58.056Z,51.30
2018-04-19T02:08:25.583Z,51.32
2018-04-19T02:10:53.097Z,51.18
2018-04-19T02:13:20.651Z,51.64
2018-04-19T02:15:48.162Z,51.44
2018-04-19T02:18:15.677Z,51.57
2018-04-19T02:20:43.227Z,51.61
2018-04-19T02:23:10.744Z,51.61
2018-04-19T02:25:38.277Z,51.41
2018-04-19T02:28:05.839Z,51.72
2018-04-19T02:30:33.359Z,52.03
2018-04-19T02:33:01.162Z,51.79
2018-04-19T02:35:28.978Z,52.11
2018-04-19T02:37:56.489Z,52.56
2018-04-19T02:40:24.008Z,52.86
2018-04-19T02:42:51.555Z,52.60
2018-04-19T02:45:19.081Z,52.84
2018-04-19T02:47:46.599Z,53.74
2018-04-19T02:50:14.152Z,53.58
2018-04-19T02:52:41.663Z,53.38
2018-04-19T02:55:09.175Z,53.50
2018-04-19T02:57:36.872Z,53.68
2018-04-19T03:00:04.451Z,53.91
2018-04-19T03:02:31.967Z,53.84
2018-04-19T03:04:59.690Z,54.07
2018-04-19T03:07:27.194Z,54.10
2018-04-19T03:09:54.710Z,54.21
2018-04-19T03:12:22.407Z,55.01
2018-04-19T03:14:49.921Z,55.19
2018-04-19T03:17:17.436Z,55.41
2018-04-19T03:19:45.151Z,55.36
2018-04-19T03:22:12.668Z,55.26
2018-04-19T03:24:40.179Z,55.37
2018-04-19T03:27:07.919Z,55.39
2018-04-19T03:29:35.433Z,55.63
2018-04-19T03:32:02.946Z,55.69
2018-04-19T03:34:30.907Z,55.17
2018-04-19T03:36:58.414Z,55.14
2018-04-19T03:39:25.932Z,56.02
2018-04-19T03:41:53.484Z,55.91
2018-04-19T03:44:20.994Z,56.05
2018-04-19T03:46:48.539Z,56.13
2018-04-19T03:49:16.095Z,56.76
2018-04-19T03:51:43.613Z,56.98
2018-04-19T03:54:11.127Z,57.05
2018-04-19T03:56:38.674Z,56.80
2018-04-19T03:59:06.179Z,57.22
2018-04-19T04:01:33.691Z,56.93
2018-04-19T04:04:01.415Z,56.51
2018-04-19T04:06:28.928Z,56.93
2018-04-19T04:08:56.448Z,57.56
2018-04-19T04:11:24.404Z,57.64
2018-04-19T04:13:52.397Z,57.79
2018-04-19T04:16:31.790Z,57.52
2018-04-19T04:22:15.055Z,58.59
2018-04-19T04:24:42.564Z,58.00
2018-04-19T04:27:10.083Z,58.21
2018-04-19T04:29:37.620Z,58.04
2018-04-19T04:32:05.341Z,58.31
2018-04-19T04:34:32.855Z,58.13
2018-04-19T04:37:01.363Z,58.51
2018-04-19T04:39:28.895Z,58.68
2018-04-19T04:41:56.411Z,58.59
2018-04-19T04:44:24.106Z,58.89
2018-04-19T04:46:51.620Z,59.57
2018-04-19T04:49:19.126Z,59.16
2018-04-19T04:51:46.785Z,58.94
2018-04-19T04:54:14.305Z,59.06
2018-04-19T04:56:41.818Z,58.91
2018-04-19T04:59:09.738Z,58.39
2018-04-19T05:01:37.725Z,58.23
2018-04-19T05:04:05.235Z,58.03
2018-04-19T05:06:32.963Z,58.14
2018-04-19T05:09:00.474Z,57.75
2018-04-19T05:11:27.989Z,57.03
2018-04-19T05:13:55.665Z,56.64
2018-04-19T05:16:23.214Z,56.88
2018-04-19T05:18:50.727Z,56.66
2018-04-19T05:21:18.291Z,56.60
2018-04-19T05:23:45.798Z,56.57
2018-04-19T05:26:13.378Z,56.78
2018-04-19T05:28:41.099Z,56.74
2018-04-19T05:31:08.616Z,57.05
2018-04-19T05:33:36.130Z,57.03
2018-04-19T05:36:03.884Z,56.30
2018-04-19T05:38:31.397Z,56.46
2018-04-19T05:40:58.925Z,56.51
2018-04-19T05:43:26.668Z,56.65
2018-04-19T05:45:54.175Z,56.28
2018-04-19T05:48:21.687Z,56.41
2018-04-19T05:50:49.552Z,56.42
2018-04-19T05:53:17.070Z,56.17
2018-04-19T05:55:44.583Z,56.28
2018-04-19T05:58:12.327Z,55.69
2018-04-19T06:00:39.844Z,55.38
2018-04-19T06:03:07.398Z,55.05
2018-04-19T06:05:35.205Z,54.81
2018-04-19T06:08:02.721Z,53.45
2018-04-19T06:10:30.259Z,52.32
2018-04-19T06:12:58.193Z,50.72
2018-04-19T06:15:25.711Z,49.93
2018-04-19T06:17:53.237Z,48.72
2018-04-19T06:20:20.974Z,47.47
2018-04-19T06:22:48.478Z,46.01
2018-04-19T06:25:16.523Z,45.92
2018-04-19T06:27:44.372Z,45.28
2018-04-19T06:30:11.891Z,44.92
2018-04-19T06:32:39.418Z,44.43
2018-04-19T06:35:07.144Z,43.87
2018-04-19T06:37:34.663Z,42.75
2018-04-19T06:40:02.175Z,41.87
2018-04-19T06:42:29.727Z,40.18
2018-04-19T06:44:57.259Z,39.98
2018-04-19T06:47:24.767Z,39.17
2018-04-19T06:49:52.294Z,37.87
2018-04-19T06:52:19.807Z,36.26
2018-04-19T06:54:47.311Z,35.61
2018-04-19T06:57:15.184Z,35.63
2018-04-19T06:59:42.697Z,33.98
2018-04-19T07:02:13.451Z,33.71
2018-04-19T07:04:41.751Z,32.67
2018-04-19T07:07:09.261Z,32.46
2018-04-19T07:09:36.776Z,31.42
2018-04-19T07:12:04.636Z,31.92
2018-04-19T07:14:32.142Z,30.78
2018-04-19T07:16:59.656Z,28.99
2018-04-19T07:19:27.480Z,31.03
2018-04-19T07:21:55.039Z,29.46
2018-04-19T07:24:22.554Z,29.38
2018-04-19T07:26:50.110Z,29.21
2018-04-19T07:29:17.733Z,28.87
2018-04-19T07:31:45.245Z,28.04
2018-04-19T07:34:13.246Z,27.59
2018-04-19T07:36:40.776Z,27.08
2018-04-19T07:39:08.717Z,25.99
2018-04-19T07:41:36.239Z,25.55
2018-04-19T07:44:03.754Z,25.31
2018-04-19T07:46:31.275Z,25.14
2018-04-19T07:48:58.823Z,25.14
2018-04-19T07:51:26.358Z,24.15
2018-04-19T07:53:53.872Z,25.06
2018-04-19T07:56:21.879Z,24.47
2018-04-19T07:58:49.445Z,23.68
2018-04-19T08:01:16.972Z,23.15
2018-04-19T08:03:44.643Z,23.69
2018-04-19T08:06:12.831Z,22.60
2018-04-19T08:08:40.359Z,21.25
2018-04-19T08:11:07.906Z,20.86
2018-04-19T08:13:35.412Z,20.12
2018-04-19T08:16:03.229Z,20.09
2018-04-19T08:18:30.993Z,19.68
2018-04-19T08:20:58.512Z,20.18
2018-04-19T08:23:26.553Z,19.75
2018-04-19T08:25:54.271Z,19.13
2018-04-19T08:28:21.779Z,19.27
2018-04-19T08:30:49.280Z,19.77
2018-04-19T08:33:16.821Z,19.62
2018-04-19T08:35:44.335Z,19.50
2018-04-19T08:38:11.843Z,18.82
2018-04-19T08:40:39.531Z,17.97
2018-04-19T08:43:07.049Z,17.07
2018-04-19T08:45:34.548Z,17.08
2018-04-19T08:48:02.528Z,17.31
2018-04-19T08:50:30.032Z,16.62
2018-04-19T08:52:57.542Z,15.14
2018-04-19T08:55:25.299Z,15.56
2018-04-19T08:57:52.827Z,15.88
2018-04-19T09:00:20.333Z,15.17
2018-04-19T09:02:48.053Z,15.08
2018-04-19T09:05:15.776Z,15.05
2018-04-19T09:07:43.316Z,13.98
2018-04-19T09:10:10.963Z,14.20
2018-04-19T09:12:38.725Z,16.11
2018-04-19T09:15:06.236Z,15.26
2018-04-19T09:17:33.951Z,13.81
2018-04-19T09:20:01.469Z,13.53
2018-04-19T09:22:28.974Z,13.61
2018-04-19T09:24:57.766Z,13.31
2018-04-19T09:27:25.343Z,13.18
2018-04-19T09:29:52.851Z,12.47
2018-04-19T09:32:20.404Z,12.26
2018-04-19T09:34:47.916Z,12.74
2018-04-19T09:37:15.420Z,11.10
2018-04-19T09:39:43.107Z,11.21
2018-04-19T09:42:10.630Z,10.57
2018-04-19T09:44:38.135Z,12.33
2018-04-19T09:47:06.100Z,11.16
2018-04-19T09:49:33.604Z,12.53
2018-04-19T09:52:01.104Z,10.79
2018-04-19T09:54:28.800Z,10.89
2018-04-19T09:56:56.298Z,10.65
2018-04-19T09:59:24.332Z,9.48
2018-04-19T10:01:52.167Z,9.44
2018-04-19T10:04:26.314Z,9.40
2018-04-19T10:06:53.851Z,10.21
2018-04-19T10:09:21.366Z,10.37
2018-04-19T10:11:48.870Z,9.71
2018-04-19T10:14:16.423Z,9.93
2018-04-19T10:16:43.926Z,8.83
2018-04-19T10:19:11.436Z,9.09
2018-04-19T10:21:38.965Z,8.44
2018-04-19T10:24:06.459Z,8.90
2018-04-19T10:26:33.959Z,8.09
2018-04-19T10:29:01.767Z,8.44
2018-04-19T10:31:29.287Z,9.03
2018-04-19T10:33:56.790Z,8.25
2018-04-19T10:36:24.330Z,8.48
2018-04-19T10:38:52.860Z,8.04
2018-04-19T10:41:20.371Z,8.14
2018-04-19T10:43:47.912Z,7.64
2018-04-19T10:46:15.416Z,7.27
2018-04-19T10:48:43.917Z,6.96
2018-04-19T10:51:11.459Z,7.01
2018-04-19T10:53:38.959Z,7.83
2018-04-19T10:56:06.458Z,8.34
2018-04-19T10:58:34.280Z,7.84
2018-04-19T11:01:01.813Z,7.52
2018-04-19T11:03:29.883Z,7.91
2018-04-19T11:05:57.406Z,7.65
2018-04-19T11:08:27.991Z,7.63
2018-04-19T11:10:55.540Z,7.11
2018-04-19T11:13:24.203Z,7.86
2018-04-19T11:15:53.010Z,7.67
2018-04-19T11:18:21.350Z,8.48
2018-04-19T11:20:49.245Z,8.92
2018-04-19T11:23:17.120Z,7.32
2018-04-19T11:25:46.489Z,6.70
2018-04-19T11:28:14.491Z,8.16
2018-04-19T11:30:43.030Z,8.36
2018-04-19T11:33:10.532Z,8.09
2018-04-19T11:35:38.875Z,8.93
2018-04-19T11:38:06.391Z,8.86
2018-04-19T11:40:34.345Z,8.04
2018-04-19T11:43:02.064Z,8.02
2018-04-19T11:45:29.586Z,7.49
2018-04-19T11:47:57.083Z,7.72
2018-04-19T11:50:24.953Z,8.05
2018-04-19T11:52:52.472Z,9.17
2018-04-19T11:55:22.148Z,7.50
2018-04-19T11:57:49.995Z,8.99
2018-04-19T12:00:17.507Z,8.73
2018-04-19T12:02:46.155Z,8.71
2018-04-19T12:05:13.692Z,8.97
2018-04-19T12:07:42.080Z,8.71
2018-04-19T12:10:09.581Z,8.22
2018-04-19T12:12:37.612Z,7.84
2018-04-19T12:15:05.124Z,7.85
2018-04-19T12:17:32.747Z,8.05
2018-04-19T12:20:00.648Z,8.02
2018-04-19T12:22:28.167Z,8.53
2018-04-19T12:24:55.673Z,9.53
2018-04-19T12:27:23.211Z,9.41
2018-04-19T12:29:50.952Z,9.63
2018-04-19T12:32:18.480Z,10.00
2018-04-19T12:34:47.906Z,9.14
2018-04-19T12:37:15.415Z,8.15
2018-04-19T12:39:43.780Z,7.99
2018-04-19T12:42:11.495Z,7.95
2018-04-19T12:44:39.149Z,8.45
2018-04-19T12:47:06.776Z,8.82
2018-04-19T12:49:34.695Z,8.40
2018-04-19T12:52:02.246Z,8.56
2018-04-19T12:54:29.756Z,8.32
2018-04-19T12:56:58.102Z,8.23
2018-04-19T12:59:25.700Z,8.82
2018-04-19T13:01:53.604Z,9.04
2018-04-19T13:04:21.460Z,7.77
2018-04-19T13:06:50.431Z,8.26
2018-04-19T13:09:17.933Z,8.08
2018-04-19T13:11:45.780Z,7.86
2018-04-19T13:14:13.772Z,8.09
2018-04-19T13:16:42.261Z,7.49
2018-04-19T13:19:10.026Z,7.65
2018-04-19T13:21:37.605Z,8.32
2018-04-19T13:24:06.063Z,8.89
2018-04-19T13:26:33.651Z,9.44
2018-04-19T13:29:01.591Z,10.75
2018-04-19T13:31:29.179Z,11.00
2018-04-19T13:33:56.722Z,9.77
2018-04-19T13:36:24.739Z,10.67
2018-04-19T13:38:52.248Z,10.23
2018-04-19T13:41:20.176Z,9.99
2018-04-19T13:43:47.745Z,10.69
2018-04-19T13:46:15.261Z,11.04
2018-04-19T13:48:42.990Z,9.75
2018-04-19T13:51:11.163Z,9.86
2018-04-19T13:53:38.705Z,10.02
2018-04-19T13:56:06.452Z,10.25
2018-04-19T13:58:34.455Z,9.72
2018-04-19T14:01:01.997Z,9.70
2018-04-19T14:03:29.780Z,10.55
2018-04-19T14:05:58.670Z,10.78
2018-04-19T14:08:26.333Z,11.23
2018-04-19T14:10:54.300Z,10.07
2018-04-19T14:13:21.921Z,10.29
2018-04-19T14:15:49.623Z,10.53
2018-04-19T14:18:17.594Z,11.55
2018-04-19T14:20:45.459Z,11.40
2018-04-19T14:23:12.988Z,12.23
2018-04-19T14:25:41.296Z,10.96
2018-04-19T14:28:09.160Z,11.35
2018-04-19T14:30:37.335Z,9.98
2018-04-19T14:33:05.210Z,10.36
2018-04-19T14:35:32.773Z,10.37
2018-04-19T14:38:00.361Z,11.44
2018-04-19T14:40:28.301Z,11.46
2018-04-19T14:42:56.416Z,11.36
2018-04-19T14:45:23.950Z,11.43
2018-04-19T14:47:51.595Z,12.01
2018-04-19T14:50:19.107Z,12.09
2018-04-19T14:52:46.615Z,12.57
2018-04-19T14:55:14.234Z,13.18
2018-04-19T14:57:41.796Z,12.99
2018-04-19T15:00:09.308Z,12.80
2018-04-19T15:02:37.096Z,13.23
2018-04-19T15:05:04.705Z,13.85
2018-04-19T15:07:32.442Z,14.82
2018-04-19T15:10:00.039Z,14.65
2018-04-19T15:12:27.576Z,15.34
2018-04-19T15:14:55.147Z,16.77
2018-04-19T15:17:22.956Z,16.51
2018-04-19T15:19:50.817Z,16.33
2018-04-19T15:22:18.387Z,16.37
2018-04-19T15:24:46.319Z,17.72
2018-04-19T15:27:14.778Z,17.74
2018-04-19T15:29:42.659Z,18.02
2018-04-19T15:32:10.489Z,18.31
2018-04-19T15:34:38.209Z,17.56
2018-04-19T15:37:05.744Z,18.02
2018-04-19T15:39:33.483Z,17.65
2018-04-19T15:42:01.175Z,17.99
2018-04-19T15:44:28.707Z,18.38
2018-04-19T15:46:57.377Z,19.11
2018-04-19T15:49:25.130Z,18.65
2018-04-19T15:51:52.670Z,18.75
2018-04-19T15:54:21.911Z,19.25
2018-04-19T15:56:50.494Z,19.16
2018-04-19T15:59:18.025Z,19.16
2018-04-19T16:01:45.959Z,18.61
2018-04-19T16:04:13.489Z,17.85
2018-04-19T16:06:41.500Z,18.01
2018-04-19T16:09:09.131Z,17.98
2018-04-19T16:11:36.691Z,17.87
2018-04-19T16:14:04.253Z,18.14
2018-04-19T16:16:31.807Z,18.85
2018-04-19T16:18:59.481Z,19.64
2018-04-19T16:21:27.019Z,19.36
2018-04-19T16:23:55.309Z,19.60
2018-04-19T16:26:24.302Z,19.62
2018-04-19T16:28:53.006Z,20.22
2018-04-19T16:31:20.815Z,20.36
2018-04-19T16:33:48.614Z,20.55
2018-04-19T16:36:16.170Z,20.36
2018-04-19T16:38:43.967Z,19.84
2018-04-19T16:41:11.523Z,19.27
2018-04-19T16:43:39.129Z,19.73
2018-04-19T16:46:06.755Z,19.84
2018-04-19T16:48:34.378Z,20.33
2018-04-19T16:51:02.245Z,20.18
2018-04-19T16:53:30.527Z,20.05
2018-04-19T16:55:58.249Z,20.20
2018-04-19T16:58:26.218Z,20.24
2018-04-19T17:00:54.026Z,20.23
2018-04-19T17:03:21.782Z,20.22
2018-04-19T17:05:49.665Z,20.66
2018-04-19T17:08:18.439Z,20.29
2018-04-19T17:10:46.203Z,20.10
2018-04-19T17:13:13.933Z,20.24
2018-04-19T17:15:42.040Z,20.14
2018-04-19T17:18:10.011Z,20.28
2018-04-19T17:20:38.589Z,20.62
2018-04-19T17:23:06.457Z,20.14
2018-04-19T17:25:34.314Z,20.10
2018-04-19T17:28:02.841Z,20.11
2018-04-19T17:30:31.301Z,19.97
2018-04-19T17:32:59.663Z,19.87
2018-04-19T17:35:27.326Z,19.95
2018-04-19T17:37:55.193Z,20.49
2018-04-19T17:40:22.944Z,20.29
2018-04-19T17:42:50.824Z,20.71
2018-04-19T17:45:18.691Z,20.26
2018-04-19T17:47:46.846Z,20.74
2018-04-19T17:50:14.729Z,20.76
2018-04-19T17:52:42.802Z,20.80
2018-04-19T17:55:10.670Z,21.22
2018-04-19T17:57:38.744Z,21.44
2018-04-19T18:00:07.083Z,21.53
2018-04-19T18:02:34.985Z,22.05
2018-04-19T18:05:02.958Z,21.99
2018-04-19T18:07:31.035Z,22.35
2018-04-19T18:09:59.916Z,22.58
2018-04-19T18:12:27.783Z,22.76
2018-04-19T18:14:55.661Z,23.17
2018-04-19T18:17:23.388Z,23.17
2018-04-19T18:19:51.484Z,23.56
2018-04-19T18:22:19.514Z,23.60
2018-04-19T18:24:47.731Z,23.68
2018-04-19T18:27:15.497Z,24.39
2018-04-19T18:29:43.669Z,24.45
2018-04-19T18:32:11.538Z,24.44
2018-04-19T18:34:39.922Z,24.63
2018-04-19T18:37:08.769Z,24.83
2018-04-19T18:39:36.567Z,25.61
2018-04-19T18:42:04.665Z,25.80
2018-04-19T18:44:33.018Z,25.77
2018-04-19T18:47:00.885Z,25.93
2018-04-19T18:49:28.857Z,26.16
2018-04-19T18:51:56.828Z,26.27
2018-04-19T18:54:24.695Z,26.50
2018-04-19T18:56:52.557Z,26.58
2018-04-19T18:59:20.629Z,26.98
2018-04-19T19:01:48.495Z,27.71
2018-04-19T19:04:16.773Z,26.91
2018-04-19T19:06:45.355Z,26.97
2018-04-19T19:09:13.279Z,27.35
2018-04-19T19:11:41.238Z,27.30
2018-04-19T19:14:09.158Z,27.34
2018-04-19T19:16:37.044Z,27.51
2018-04-19T19:19:17.952Z,28.04
2018-04-19T19:21:45.865Z,27.84
2018-04-19T19:24:13.875Z,28.07
2018-04-19T19:26:42.316Z,28.22
2018-04-19T19:29:10.283Z,28.12
2018-04-19T19:31:38.002Z,28.54
2018-04-19T19:34:05.810Z,28.86
2018-04-19T19:36:33.679Z,29.56
2018-04-19T19:39:01.647Z,29.28
2018-04-19T19:41:30.336Z,29.20
2018-04-19T19:43:58.202Z,29.11
2018-04-19T19:46:26.975Z,29.33
2018-04-19T19:48:55.225Z,29.67
2018-04-19T19:51:23.213Z,29.09
2018-04-19T19:53:50.889Z,28.86
2018-04-19T19:56:19.022Z,29.08
2018-04-19T19:58:47.248Z,29.09
2018-04-19T20:01:15.117Z,29.14
2018-04-19T20:03:43.703Z,29.27
2018-04-19T20:06:11.560Z,29.13
2018-04-19T20:08:39.632Z,28.95
2018-04-19T20:11:08.010Z,29.15
2018-04-19T20:13:35.683Z,29.16
2018-04-19T20:16:03.538Z,29.21
2018-04-19T20:18:31.682Z,29.23
2018-04-19T20:20:59.550Z,29.13
2018-04-19T20:23:27.445Z,29.23
2018-04-19T20:25:55.725Z,29.44
2018-04-19T20:28:23.587Z,29.59
2018-04-19T20:30:51.454Z,29.89
2018-04-19T20:33:19.283Z,30.28
2018-04-19T20:35:48.722Z,30.67
2018-04-19T20:38:16.590Z,30.62
2018-04-19T20:40:44.663Z,30.78
2018-04-19T20:43:13.195Z,30.86
2018-04-19T20:45:40.971Z,30.98
2018-04-19T20:48:08.765Z,30.72
2018-04-19T20:50:36.640Z,31.24
2018-04-19T20:53:05.016Z,31.58
2018-04-19T20:55:33.191Z,31.15
2018-04-19T20:58:00.954Z,31.91
2018-04-19T21:00:28.820Z,32.08
2018-04-19T21:02:56.617Z,33.16
2018-04-19T21:05:24.761Z,34.52
2018-04-19T21:07:52.625Z,34.39
2018-04-19T21:10:20.493Z,33.58
2018-04-19T21:12:48.464Z,33.29
2018-04-19T21:15:16.350Z,32.98
2018-04-19T21:17:44.092Z,32.42
2018-04-19T21:20:11.857Z,31.90
2018-04-19T21:22:39.724Z,31.68
2018-04-19T21:25:07.794Z,31.56
2018-04-19T21:27:35.437Z,31.64
2018-04-19T21:30:03.325Z,31.59
2018-04-19T21:32:31.082Z,31.90
2018-04-19T21:34:58.855Z,34.36
2018-04-19T21:37:26.719Z,34.70
2018-04-19T21:39:54.462Z,34.75
2018-04-19T21:42:22.005Z,36.11
2018-04-19T21:44:49.510Z,35.52
2018-04-19T21:47:17.464Z,35.63
2018-04-19T21:49:44.973Z,35.43
2018-04-19T21:52:12.657Z,35.83
2018-04-19T21:54:40.428Z,35.91
2018-04-19T21:57:07.940Z,35.91
2018-04-19T21:59:35.468Z,36.01
2018-04-19T22:02:03.012Z,36.45
2018-04-19T22:04:31.335Z,35.95
2018-04-19T22:07:00.707Z,36.19
2018-04-19T22:09:28.260Z,36.81
2018-04-19T22:11:55.782Z,37.31
2018-04-19T22:14:23.301Z,36.89
2018-04-19T22:16:50.855Z,37.33
2018-04-19T22:19:18.523Z,37.51
2018-04-19T22:21:46.219Z,37.55
2018-04-19T22:24:13.760Z,37.71
2018-04-19T22:26:42.938Z,37.87
2018-04-19T22:29:11.417Z,37.68
2018-04-19T22:31:40.727Z,37.56
2018-04-19T22:34:09.391Z,37.57
2018-04-19T22:36:38.782Z,37.92
2018-04-19T22:39:06.608Z,38.38
2018-04-19T22:41:34.135Z,37.92
2018-04-19T22:44:01.640Z,38.39
2018-04-19T22:46:30.040Z,38.20
2018-04-19T22:48:57.712Z,38.70
2018-04-19T22:51:25.227Z,39.10
2018-04-19T22:53:52.799Z,39.77
2018-04-19T22:56:20.314Z,40.38
2018-04-19T22:58:47.850Z,40.25
2018-04-19T23:01:15.922Z,41.05
2018-04-19T23:03:43.423Z,41.31
2018-04-19T23:06:10.937Z,41.46
2018-04-19T23:08:38.829Z,41.67
2018-04-19T23:11:06.359Z,41.85
2018-04-19T23:13:33.880Z,42.35
2018-04-19T23:16:01.522Z,42.18
2018-04-19T23:18:29.035Z,42.14
2018-04-19T23:20:56.542Z,42.43
2018-04-19T23:23:24.447Z,42.95
2018-04-19T23:25:51.963Z,43.10
2018-04-19T23:28:19.587Z,43.48
2018-04-19T23:30:47.320Z,43.67
2018-04-19T23:33:14.821Z,43.65
2018-04-19T23:35:42.441Z,44.04
2018-04-19T23:38:10.208Z,44.22
2018-04-19T23:40:37.715Z,44.34
2018-04-19T23:43:05.234Z,44.35
2018-04-19T23:45:33.086Z,44.70
2018-04-19T23:48:00.600Z,45.12
2018-04-19T23:50:28.107Z,44.82
2018-04-19T23:52:55.642Z,45.25
2018-04-19T23:55:23.153Z,45.56
2018-04-19T23:57:50.663Z,45.96
